createdAt,value
2023-01-03T00:00:49.555Z,10.90
2023-01-03T00:06:19.381Z,11.20
2023-01-03T00:11:45.913Z,10.70
2023-01-03T00:16:54.432Z,11.00
2023-01-03T00:22:00.467Z,11.00
2023-01-03T00:27:06.284Z,10.90
2023-01-03T00:32:12.528Z,10.10
2023-01-03T00:37:18.332Z,9.80
2023-01-03T00:42:24.087Z,10.40
2023-01-03T00:47:29.794Z,10.40
2023-01-03T00:52:35.610Z,10.50
2023-01-03T00:57:41.541Z,10.20
2023-01-03T01:02:47.383Z,9.70
2023-01-03T01:07:53.422Z,9.20
2023-01-03T01:12:59.092Z,9.60
2023-01-03T01:18:05.028Z,10.50
2023-01-03T01:23:10.780Z,9.70
2023-01-03T01:28:16.469Z,9.00
2023-01-03T01:33:22.273Z,9.00
2023-01-03T01:38:28.048Z,9.00
2023-01-03T01:43:52.791Z,8.40
2023-01-03T01:49:03.245Z,9.30
2023-01-03T01:54:09.921Z,8.90
2023-01-03T01:59:16.492Z,9.20
2023-01-03T02:04:25.792Z,9.10
2023-01-03T02:09:34.364Z,9.40
2023-01-03T02:14:51.231Z,9.50
2023-01-03T02:20:19.617Z,8.40
2023-01-03T02:26:12.000Z,8.80
2023-01-03T02:31:27.464Z,8.20
2023-01-03T02:36:42.195Z,8.20
2023-01-03T02:42:14.032Z,7.70
2023-01-03T02:47:22.115Z,6.80
2023-01-03T02:52:30.707Z,7.50
2023-01-03T02:57:42.466Z,8.20
2023-01-03T03:02:52.377Z,7.90
2023-01-03T03:07:58.359Z,7.70
2023-01-03T03:13:14.860Z,7.00
2023-01-03T03:18:26.915Z,7.70
2023-01-03T03:23:56.367Z,6.90
2023-01-03T03:29:08.626Z,7.00
2023-01-03T03:34:18.526Z,6.30
2023-01-03T03:39:44.896Z,5.90
2023-01-03T03:45:03.238Z,6.50
2023-01-03T03:50:18.455Z,6.00
2023-01-03T03:55:27.983Z,5.40
2023-01-03T04:00:38.425Z,5.10
2023-01-03T04:05:49.112Z,5.50
2023-01-03T04:11:05.909Z,6.00
2023-01-03T04:16:12.431Z,6.40
2023-01-03T04:21:21.032Z,5.70
2023-01-03T04:26:27.252Z,5.40
2023-01-03T04:31:33.619Z,5.50
2023-01-03T04:36:39.290Z,4.60
2023-01-03T04:41:45.089Z,5.10
2023-01-03T04:46:53.039Z,3.50
2023-01-03T04:51:59.207Z,3.80
2023-01-03T04:57:05.128Z,3.90
2023-01-03T05:02:11.145Z,3.40
2023-01-03T05:07:17.047Z,2.40
2023-01-03T05:12:23.000Z,2.70
2023-01-03T05:17:28.825Z,2.50
2023-01-03T05:22:53.679Z,3.20
2023-01-03T05:28:01.986Z,2.60
2023-01-03T05:33:07.749Z,3.40
2023-01-03T05:38:13.715Z,3.80
2023-01-03T05:43:19.814Z,3.30
2023-01-03T05:48:25.899Z,3.30
2023-01-03T05:53:32.044Z,2.60
2023-01-03T05:58:37.705Z,3.00
2023-01-03T06:03:45.489Z,2.80
2023-01-03T06:08:54.853Z,2.60
2023-01-03T06:14:00.811Z,2.10
2023-01-03T06:19:08.146Z,2.60
2023-01-03T06:24:14.339Z,2.80
2023-01-03T06:29:20.579Z,2.60
2023-01-03T06:34:26.581Z,2.50
2023-01-03T06:39:33.680Z,2.20
2023-01-03T06:44:39.693Z,2.40
2023-01-03T06:50:05.733Z,2.30
2023-01-03T06:55:11.441Z,2.00
2023-01-03T07:00:18.281Z,2.10
2023-01-03T07:05:24.191Z,2.00
2023-01-03T07:10:30.156Z,2.40
2023-01-03T07:15:36.042Z,2.40
2023-01-03T07:20:44.392Z,1.90
2023-01-03T07:25:53.938Z,2.10
2023-01-03T07:31:04.185Z,2.00
2023-01-03T07:36:12.483Z,1.70
2023-01-03T07:41:18.245Z,1.90
2023-01-03T07:46:25.220Z,1.70
2023-01-03T07:51:31.515Z,1.90
2023-01-03T07:56:37.475Z,2.00
2023-01-03T08:01:43.195Z,2.30
2023-01-03T08:06:49.260Z,1.80
2023-01-03T08:12:13.909Z,1.80
2023-01-03T08:17:19.791Z,1.70
2023-01-03T08:22:25.635Z,2.60
2023-01-03T08:27:59.876Z,2.30
2023-01-03T08:33:21.790Z,2.40
2023-01-03T08:38:35.537Z,2.80
2023-01-03T08:43:44.564Z,3.10
2023-01-03T08:48:50.479Z,3.40
2023-01-03T08:53:56.357Z,3.30
2023-01-03T08:59:02.378Z,3.60
2023-01-03T09:04:08.505Z,3.00
2023-01-03T09:09:14.439Z,3.10
2023-01-03T09:14:20.183Z,3.20
2023-01-03T09:19:25.999Z,3.20
2023-01-03T09:24:31.824Z,2.20
2023-01-03T09:29:37.767Z,2.80
2023-01-03T09:34:43.643Z,3.30
2023-01-03T09:39:49.431Z,2.90
2023-01-03T09:44:55.708Z,3.40
2023-01-03T09:55:51.529Z,3.10
2023-01-03T10:01:20.424Z,3.10
2023-01-03T10:06:41.104Z,3.50
2023-01-03T10:11:59.810Z,4.10
2023-01-03T10:17:19.193Z,4.00
2023-01-03T10:22:28.479Z,3.60
2023-01-03T10:27:38.134Z,2.70
2023-01-03T10:33:00.567Z,2.10
2023-01-03T10:38:06.347Z,2.20
2023-01-03T10:43:20.127Z,2.40
2023-01-03T10:48:52.372Z,2.00
2023-01-03T10:54:09.791Z,2.20
2023-01-03T10:59:25.431Z,2.30
2023-01-03T11:04:32.718Z,1.90
2023-01-03T11:09:51.231Z,2.20
2023-01-03T11:15:06.312Z,1.90
2023-01-03T11:20:19.769Z,2.50
2023-01-03T11:25:44.190Z,1.90
2023-01-03T11:30:57.781Z,2.10
2023-01-03T11:36:20.904Z,2.30
2023-01-03T11:41:53.785Z,2.50
2023-01-03T11:47:14.835Z,2.50
2023-01-03T11:52:29.906Z,2.80
2023-01-03T11:57:48.427Z,3.10
2023-01-03T12:03:05.570Z,3.20
2023-01-03T12:08:25.722Z,2.90
2023-01-03T12:13:40.381Z,2.90
2023-01-03T12:18:59.064Z,3.70
2023-01-03T12:24:13.864Z,3.50
2023-01-03T12:29:24.613Z,3.50
2023-01-03T12:34:39.567Z,3.30
2023-01-03T12:39:55.267Z,3.50
2023-01-03T12:45:18.907Z,3.00
2023-01-03T12:50:30.882Z,3.10
2023-01-03T12:55:52.221Z,2.90
2023-01-03T13:01:04.748Z,2.80
2023-01-03T13:06:17.500Z,2.60
2023-01-03T13:11:31.319Z,2.80
2023-01-03T13:16:48.962Z,3.30
2023-01-03T13:22:04.911Z,2.80
2023-01-03T13:27:38.652Z,2.50
2023-01-03T13:32:51.941Z,2.10
2023-01-03T13:38:00.897Z,2.10
2023-01-03T13:43:20.716Z,2.10
2023-01-03T13:48:37.992Z,2.10
2023-01-03T13:54:05.817Z,1.90
2023-01-03T13:59:26.975Z,2.30
2023-01-03T14:10:22.234Z,2.30
2023-01-03T14:15:30.636Z,2.30
2023-01-03T14:20:39.552Z,2.10
2023-01-03T14:25:46.294Z,2.90
2023-01-03T14:31:02.320Z,1.90
2023-01-03T14:36:13.776Z,2.50
2023-01-03T14:41:35.047Z,3.30
2023-01-03T14:51:46.793Z,2.10
2023-01-03T14:56:55.099Z,2.70
2023-01-03T15:02:01.936Z,2.60
2023-01-03T15:07:13.482Z,2.30
2023-01-03T15:12:20.313Z,3.00
2023-01-03T15:17:28.315Z,3.00
2023-01-03T15:22:41.206Z,2.80
2023-01-03T15:27:49.048Z,2.90
2023-01-03T15:33:00.945Z,2.90
2023-01-03T15:38:15.618Z,3.00
2023-01-03T15:43:27.004Z,2.60
2023-01-03T15:48:36.747Z,2.80
2023-01-03T15:53:44.644Z,3.10
2023-01-03T15:58:54.802Z,2.80
2023-01-03T16:04:00.619Z,2.70
2023-01-03T16:09:06.573Z,2.80
2023-01-03T16:14:19.507Z,2.20
2023-01-03T16:19:27.840Z,2.50
2023-01-03T16:24:34.323Z,2.50
2023-01-03T16:29:40.153Z,2.70
2023-01-03T16:34:46.106Z,2.60
2023-01-03T16:39:52.048Z,3.00
2023-01-03T16:44:58.645Z,2.90
2023-01-03T16:50:12.952Z,3.10
2023-01-03T16:55:25.233Z,3.00
2023-01-03T17:00:33.452Z,2.30
2023-01-03T17:05:40.063Z,2.70
2023-01-03T17:10:48.486Z,2.80
2023-01-03T17:15:54.881Z,2.50
2023-01-03T17:21:05.971Z,3.10
2023-01-03T17:26:17.036Z,3.10
2023-01-03T17:31:25.847Z,2.90
2023-01-03T17:36:33.566Z,3.60
2023-01-03T17:41:58.624Z,2.70
2023-01-03T17:47:40.490Z,3.00
2023-01-03T17:52:50.309Z,4.20
2023-01-03T17:58:04.607Z,3.70
2023-01-03T18:03:11.513Z,4.00
2023-01-03T18:08:21.487Z,5.20
2023-01-03T18:13:31.228Z,4.00
2023-01-03T18:18:36.827Z,4.20
2023-01-03T18:23:43.528Z,4.40
2023-01-03T18:28:49.332Z,4.20
2023-01-03T18:33:57.323Z,4.60
2023-01-03T18:39:07.924Z,4.20
2023-01-03T18:44:21.157Z,4.60
2023-01-03T18:49:27.209Z,4.90
2023-01-03T18:54:37.990Z,5.30
2023-01-03T18:59:45.969Z,5.80
2023-01-03T19:04:52.178Z,5.60
2023-01-03T19:09:58.880Z,5.80
2023-01-03T19:15:14.753Z,6.30
2023-01-03T19:20:24.896Z,5.90
2023-01-03T19:25:32.925Z,5.90
2023-01-03T19:30:44.468Z,6.00
2023-01-03T19:35:50.999Z,5.90
2023-01-03T19:40:56.616Z,6.00
2023-01-03T19:46:02.781Z,6.20
2023-01-03T19:51:10.703Z,5.60
2023-01-03T19:56:24.002Z,5.60
2023-01-03T20:01:50.239Z,6.20
2023-01-03T20:06:56.185Z,6.30
2023-01-03T20:12:01.966Z,5.30
2023-01-03T20:17:21.855Z,5.70
2023-01-03T20:23:03.321Z,5.00
2023-01-03T20:27:54.472Z,6.10
2023-01-03T20:33:00.403Z,5.30
2023-01-03T20:38:06.177Z,5.30
2023-01-03T20:43:14.430Z,5.00
2023-01-03T20:48:25.487Z,5.60
2023-01-03T20:53:32.319Z,5.70
2023-01-03T20:58:38.948Z,5.20
2023-01-03T21:03:44.973Z,6.20
2023-01-03T21:08:54.492Z,5.80
2023-01-03T21:14:01.389Z,5.80
2023-01-03T21:19:12.471Z,6.00
2023-01-03T21:24:20.166Z,7.20
2023-01-03T21:29:25.838Z,6.50
2023-01-03T21:34:32.373Z,5.70
2023-01-03T21:39:38.023Z,5.60
2023-01-03T21:44:43.753Z,5.40
2023-01-03T21:49:49.446Z,5.40
2023-01-03T21:54:55.116Z,5.90
2023-01-03T22:00:00.931Z,5.70
2023-01-03T22:05:07.651Z,6.10
2023-01-03T22:10:16.294Z,6.00
2023-01-03T22:15:23.225Z,6.40
2023-01-03T22:20:34.698Z,6.40
2023-01-03T22:25:44.155Z,5.80
2023-01-03T22:30:49.823Z,6.00
2023-01-03T22:35:55.876Z,6.00
2023-01-03T22:41:02.933Z,6.70
2023-01-03T22:46:10.995Z,7.10
2023-01-03T22:51:17.464Z,6.70
2023-01-03T22:56:23.191Z,6.00
2023-01-03T23:01:29.001Z,5.80
2023-01-03T23:06:36.259Z,6.00
2023-01-03T23:12:00.915Z,5.00
2023-01-03T23:17:25.035Z,5.90
2023-01-03T23:22:30.942Z,6.00
2023-01-03T23:27:36.730Z,6.40
2023-01-03T23:32:42.432Z,5.90
2023-01-03T23:37:48.336Z,6.40
2023-01-03T23:42:53.895Z,6.20
2023-01-03T23:47:59.572Z,6.00
2023-01-03T23:53:05.420Z,5.70
2023-01-03T23:58:11.104Z,5.30
